Time;durP1;ratioP1;P1;durP2;ratioP2;P2;SDS_P1;SDS_P2;PMS_P1;PMS_P2;Temp;Humidity;BMP_temperature;BMP_pressure;BME280_temperature;BME280_humidity;BME280_pressure;Samples;Min_cycle;Max_cycle;Signal;HPM_P1;HPM_P2
2022/04/27 00:00:33;;;;;;;6.73;1.97;;;;;;;17.55;71.48;98968.38;6190016;23;20582;-89
2022/04/27 00:03:00;;;;;;;4.73;1.97;;;;;;;17.50;71.32;98967.03;6216211;23;20173;-89
2022/04/27 00:05:26;;;;;;;8.37;1.80;;;;;;;17.37;71.39;98964.56;6189908;23;20558;-89
2022/04/27 00:07:51;;;;;;;3.73;1.77;;;;;;;17.35;71.73;98963.03;6216122;23;20156;-89
2022/04/27 00:10:20;;;;;;;4.03;2.07;;;;;;;17.35;71.44;98965.66;6216154;23;20150;-89
2022/04/27 00:12:47;;;;;;;2.60;1.93;;;;;;;17.27;71.60;98968.09;6216122;23;20146;-89
2022/04/27 00:15:13;;;;;;;6.87;1.80;;;;;;;17.17;71.89;98966.19;6215916;23;20150;-88
2022/04/27 00:17:39;;;;;;;3.53;1.87;;;;;;;17.02;72.30;98964.81;6216140;23;20554;-89
2022/04/27 00:20:07;;;;;;;4.70;1.90;;;;;;;16.99;72.70;98970.34;6189775;23;20154;-89
2022/04/27 00:22:33;;;;;;;3.63;1.90;;;;;;;17.04;72.44;98968.16;6216053;23;20146;-89
2022/04/27 00:25:00;;;;;;;4.03;2.30;;;;;;;17.16;72.28;98961.03;6215992;23;20161;-88
2022/04/27 00:27:29;;;;;;;7.73;1.70;;;;;;;17.12;72.73;98955.16;6215908;23;20232;-88
2022/04/27 00:29:56;;;;;;;2.97;2.13;;;;;;;17.07;73.12;98951.19;6215973;23;20150;-88
2022/04/27 00:32:21;;;;;;;3.53;2.07;;;;;;;17.06;73.12;98954.78;6189667;23;20149;-88
2022/04/27 00:34:47;;;;;;;3.03;1.93;;;;;;;17.01;72.63;98946.38;6215948;23;20150;-88
2022/04/27 00:37:12;;;;;;;3.13;1.60;;;;;;;17.02;72.31;98942.78;6216587;23;20146;-88
2022/04/27 00:39:38;;;;;;;8.83;2.20;;;;;;;17.00;72.51;98936.78;6215900;23;20145;-89
2022/04/27 00:42:12;;;;;;;6.30;2.73;;;;;;;17.05;72.29;98935.44;6189677;23;20645;-88
2022/04/27 00:44:38;;;;;;;6.97;2.00;;;;;;;17.06;72.20;98933.59;6189524;23;20163;-88
2022/04/27 00:47:04;;;;;;;4.10;1.77;;;;;;;17.11;71.92;98926.97;6215726;23;20248;-88
2022/04/27 00:49:29;;;;;;;4.13;1.80;;;;;;;17.09;71.57;98930.72;6189506;23;20586;-88
2022/04/27 00:51:55;;;;;;;3.50;2.03;;;;;;;17.07;71.53;98930.00;6215799;23;20146;-87
2022/04/27 00:54:22;;;;;;;3.43;1.83;;;;;;;17.07;71.58;98925.56;6216443;23;20588;-87
2022/04/27 00:56:51;;;;;;;2.43;1.50;;;;;;;17.03;71.89;98921.47;6216080;23;20223;-87
2022/04/27 00:59:17;;;;;;;2.70;1.43;;;;;;;17.01;72.21;98926.06;6215779;23;20148;-88
2022/04/27 01:01:42;;;;;;;3.03;1.70;;;;;;;16.92;72.33;98915.38;6189476;23;20217;-87
2022/04/27 01:04:08;;;;;;;3.50;1.53;;;;;;;16.83;72.30;98919.63;6215728;23;20212;-88
2022/04/27 01:06:35;;;;;;;3.13;1.83;;;;;;;16.78;73.32;98908.56;6215591;23;20671;-87
2022/04/27 01:09:01;;;;;;;2.87;1.80;;;;;;;16.82;73.03;98911.81;6215603;23;20149;-88
2022/04/27 01:11:27;;;;;;;5.53;2.07;;;;;;;16.84;73.18;98909.88;6215618;23;20161;-88
2022/04/27 01:13:52;;;;;;;3.30;2.17;;;;;;;16.85;72.79;98911.56;6215590;23;20150;-88
2022/04/27 01:16:18;;;;;;;2.30;1.40;;;;;;;16.93;72.39;98911.75;6189467;23;20148;-87
2022/04/27 01:18:44;;;;;;;2.90;1.50;;;;;;;16.94;72.06;98903.69;6215613;23;20604;-88
2022/04/27 01:21:10;;;;;;;3.27;1.80;;;;;;;16.91;72.13;98901.28;6215619;23;20157;-88
2022/04/27 01:23:35;;;;;;;2.97;1.53;;;;;;;16.93;72.03;98903.81;6215586;23;20452;-87
2022/04/27 01:26:09;;;;;;;4.47;2.37;;;;;;;16.90;71.80;98896.13;6215327;23;20525;-88
2022/04/27 01:28:37;;;;;;;2.27;1.60;;;;;;;16.79;72.10;98898.81;6215497;23;20134;-87
2022/04/27 01:31:07;;;;;;;6.53;1.67;;;;;;;16.73;71.92;98899.31;6215881;23;20612;-87
2022/04/27 01:33:36;;;;;;;3.07;1.90;;;;;;;16.59;72.49;98893.34;6215541;23;20153;-88
2022/04/27 01:36:10;;;;;;;2.30;1.40;;;;;;;16.65;72.22;98896.44;6215854;23;20156;-87
2022/04/27 01:38:37;;;;;;;3.60;1.53;;;;;;;16.68;71.89;98885.59;6215927;23;20213;-87
2022/04/27 01:41:03;;;;;;;5.30;2.27;;;;;;;16.73;71.73;98888.72;6189304;23;20158;-87
2022/04/27 01:43:29;;;;;;;2.43;1.40;;;;;;;16.75;71.45;98892.91;6215835;23;20159;-87
2022/04/27 01:45:56;;;;;;;3.00;1.50;;;;;;;16.78;71.00;98887.38;6189188;23;20208;-88
2022/04/27 01:48:22;;;;;;;4.33;1.93;;;;;;;16.78;70.74;98886.53;6189319;23;20165;-87
2022/04/27 01:50:48;;;;;;;2.80;1.80;;;;;;;16.70;70.95;98900.41;6215767;23;20163;-88
2022/04/27 01:55:57;;;;;;;3.70;1.83;;;;;;;16.63;71.66;98895.72;6215918;23;20584;-87
2022/04/27 01:58:24;;;;;;;2.53;1.40;;;;;;;16.67;71.49;98884.75;6215802;23;20148;-87
2022/04/27 02:00:50;;;;;;;5.43;2.13;;;;;;;16.70;71.38;98888.97;6215434;23;20149;-87
2022/04/27 02:03:18;;;;;;;4.37;2.13;;;;;;;16.52;72.12;98883.34;6215811;23;20166;-87
2022/04/27 02:05:46;;;;;;;6.40;2.53;;;;;;;16.32;72.91;98895.53;6189461;23;20185;-87
2022/04/27 02:08:12;;;;;;;3.90;2.20;;;;;;;16.24;73.46;98897.94;6189519;23;20153;-87
2022/04/27 02:10:38;;;;;;;4.13;2.57;;;;;;;16.12;74.15;98898.91;6215715;23;20153;-88
2022/04/27 02:13:05;;;;;;;4.17;2.00;;;;;;;16.14;73.88;98896.97;6215672;23;20154;-88
2022/04/27 02:15:31;;;;;;;4.03;2.40;;;;;;;16.17;73.99;98896.72;6215290;23;20609;-87
2022/04/27 02:17:56;;;;;;;2.77;1.50;;;;;;;16.13;74.25;98895.28;6215375;23;20150;-87
2022/04/27 02:20:23;;;;;;;3.90;1.87;;;;;;;16.04;74.79;98901.28;6215344;23;20171;-87
2022/04/27 02:22:49;;;;;;;5.60;2.40;;;;;;;16.04;74.91;98903.94;6189140;23;20549;-87
2022/04/27 02:25:14;;;;;;;3.53;2.10;;;;;;;16.02;74.75;98905.88;6215182;23;20146;-88
2022/04/27 02:27:41;;;;;;;4.67;2.20;;;;;;;16.00;74.19;98899.88;6215188;23;20192;-87
2022/04/27 02:30:07;;;;;;;4.40;2.10;;;;;;;15.95;74.60;98900.22;6215283;23;20158;-87
2022/04/27 02:32:32;;;;;;;4.00;2.73;;;;;;;15.94;74.64;98908.25;6215278;23;20150;-87
2022/04/27 02:34:58;;;;;;;4.20;2.27;;;;;;;15.99;74.42;98911.38;6215203;23;20606;-87
2022/04/27 02:37:23;;;;;;;3.37;2.03;;;;;;;16.06;74.32;98909.97;6215241;23;20159;-87
2022/04/27 02:39:49;;;;;;;3.17;2.00;;;;;;;16.04;74.01;98903.94;6216032;23;20235;-87
2022/04/27 02:42:15;;;;;;;4.10;1.93;;;;;;;16.02;73.99;98910.31;6217372;23;20181;-87
2022/04/27 02:44:41;;;;;;;3.60;2.23;;;;;;;16.02;73.99;98912.94;6216969;23;20160;-87
2022/04/27 02:47:06;;;;;;;8.83;2.60;;;;;;;16.09;73.95;98920.28;6217269;23;20176;-87
2022/04/27 02:52:16;;;;;;;5.33;2.17;;;;;;;16.00;73.85;98921.03;6217063;23;20146;-87
2022/04/27 02:54:41;;;;;;;3.93;1.47;;;;;;;15.87;73.99;98920.28;6190790;23;20561;-87
2022/04/27 02:57:07;;;;;;;5.17;3.10;;;;;;;15.84;74.22;98921.38;6216902;23;20146;-87
2022/04/27 02:59:33;;;;;;;4.77;2.10;;;;;;;15.83;74.20;98919.66;6216864;23;20585;-87
2022/04/27 03:01:59;;;;;;;3.57;2.00;;;;;;;15.83;74.16;98921.47;6216817;23;20153;-87
2022/04/27 03:04:25;;;;;;;3.20;2.27;;;;;;;15.85;74.32;98925.69;6217102;23;20152;-87
2022/04/27 03:06:50;;;;;;;4.23;2.20;;;;;;;15.78;74.28;98916.53;6217014;23;20239;-87
2022/04/27 03:09:16;;;;;;;2.00;1.40;;;;;;;15.78;74.51;98918.34;6216776;23;20157;-87
2022/04/27 03:11:42;;;;;;;5.10;2.27;;;;;;;15.76;74.55;98925.56;6190595;23;20157;-87
2022/04/27 03:14:07;;;;;;;4.57;2.23;;;;;;;15.77;74.58;98921.97;6216768;23;20172;-87
2022/04/27 03:16:32;;;;;;;6.70;2.53;;;;;;;15.71;74.91;98925.91;6216756;23;20457;-87
2022/04/27 03:18:58;;;;;;;7.87;2.30;;;;;;;15.74;74.29;98927.47;6216691;23;20160;-87
2022/04/27 03:21:23;;;;;;;3.87;2.20;;;;;;;15.79;74.40;98934.09;6217033;23;20156;-88
2022/04/27 03:23:49;;;;;;;5.70;2.20;;;;;;;15.78;74.41;98929.75;6216639;23;20183;-87
2022/04/27 03:26:14;;;;;;;3.17;2.00;;;;;;;15.79;74.23;98930.59;6216388;23;20291;-87
2022/04/27 03:28:40;;;;;;;6.20;2.97;;;;;;;15.84;73.89;98939.03;6190318;23;20153;-87
2022/04/27 03:31:05;;;;;;;4.27;1.73;;;;;;;15.83;73.81;98934.69;6216951;23;20149;-87
2022/04/27 03:33:31;;;;;;;6.77;2.60;;;;;;;15.87;73.75;98944.06;6216580;23;20152;-87
2022/04/27 03:35:56;;;;;;;4.27;2.30;;;;;;;15.78;73.63;98937.69;6216546;23;20580;-87
2022/04/27 03:38:22;;;;;;;3.10;1.83;;;;;;;15.83;73.74;98937.31;6216815;23;20179;-87
2022/04/27 03:40:47;;;;;;;7.70;2.50;;;;;;;15.84;73.68;98946.94;6190674;23;20492;-87
2022/04/27 03:43:15;;;;;;;4.97;3.00;;;;;;;15.88;73.65;98943.09;6217126;23;20149;-87
2022/04/27 03:45:41;;;;;;;8.13;2.20;;;;;;;15.92;73.69;98944.56;6216324;23;20174;-87
2022/04/27 03:48:06;;;;;;;6.33;2.67;;;;;;;15.89;73.68;98943.00;6217705;23;20160;-87
2022/04/27 03:50:34;;;;;;;4.80;2.90;;;;;;;15.79;74.06;98949.97;6190456;23;20165;-87
2022/04/27 03:52:59;;;;;;;4.63;2.33;;;;;;;15.83;74.00;98953.19;6190545;23;20192;-87
2022/04/27 03:55:28;;;;;;;4.30;2.10;;;;;;;15.81;74.16;98952.47;6191120;23;20150;-87
2022/04/27 03:57:53;;;;;;;5.43;2.47;;;;;;;15.79;74.53;98955.25;6190487;23;20160;-87
2022/04/27 04:00:19;;;;;;;3.47;1.63;;;;;;;15.87;74.64;98958.13;6190447;23;20168;-87
2022/04/27 04:02:44;;;;;;;2.80;1.80;;;;;;;15.91;75.45;98958.72;6191468;23;20167;-87
2022/04/27 04:05:10;;;;;;;2.70;1.60;;;;;;;15.91;76.40;98958.72;6189941;23;20152;-87
2022/04/27 04:07:35;;;;;;;5.53;2.30;;;;;;;15.94;76.86;98955.84;6190042;23;20157;-87
2022/04/27 04:10:02;;;;;;;4.03;2.20;;;;;;;15.86;77.38;98955.59;6191412;23;20224;-87
2022/04/27 04:12:28;;;;;;;7.27;2.33;;;;;;;15.92;77.84;98963.06;6189947;23;20242;-87
2022/04/27 04:14:53;;;;;;;7.97;2.10;;;;;;;16.08;77.62;98968.84;6189903;23;20159;-87
2022/04/27 04:17:19;;;;;;;6.53;2.07;;;;;;;16.21;77.38;98966.09;6190223;23;20161;-87
2022/04/27 04:19:44;;;;;;;3.27;2.07;;;;;;;16.32;77.11;98963.44;6216482;23;20232;-87
2022/04/27 04:22:21;;;;;;;4.73;1.67;;;;;;;16.34;77.08;98964.16;6190170;23;20488;-87
2022/04/27 04:30:20;;;;;;;2.47;1.60;;;;;;;16.65;77.48;98981.13;6216450;23;20225;-87
2022/04/27 04:32:46;;;;;;;4.17;1.97;;;;;;;16.78;77.73;98980.03;6215992;23;20149;-87
2022/04/27 04:35:13;;;;;;;5.00;2.03;;;;;;;16.90;77.25;98980.88;6216095;23;20157;-87
2022/04/27 04:37:38;;;;;;;2.73;1.73;;;;;;;17.06;76.56;98986.56;6215884;23;20223;-87
2022/04/27 04:40:04;;;;;;;3.27;1.47;;;;;;;17.17;75.96;98995.34;6190678;23;20299;-87
2022/04/27 04:42:30;;;;;;;2.90;1.60;;;;;;;17.27;75.22;98990.13;6215907;23;20157;-87
2022/04/27 04:44:56;;;;;;;3.57;1.70;;;;;;;17.49;74.66;98992.69;6215867;23;20614;-87
2022/04/27 04:47:22;;;;;;;9.53;2.77;;;;;;;17.68;74.75;98994.69;6215721;23;20177;-87
2022/04/27 04:49:47;;;;;;;2.93;1.57;;;;;;;17.86;74.66;98998.44;6215840;23;20578;-87
2022/04/27 04:52:13;;;;;;;3.77;2.07;;;;;;;17.97;74.16;98992.22;6216453;23;20145;-87
2022/04/27 04:54:38;;;;;;;3.00;1.63;;;;;;;18.07;73.32;98995.78;6216122;23;20154;-88
2022/04/27 04:57:04;;;;;;;5.27;1.20;;;;;;;18.26;73.15;98996.69;6189537;23;20594;-88
2022/04/27 04:59:29;;;;;;;2.03;1.43;;;;;;;18.51;72.98;98991.97;6215709;23;20185;-88
2022/04/27 05:01:55;;;;;;;2.20;1.37;;;;;;;18.75;72.14;98995.13;6215459;23;20145;-88
2022/04/27 05:04:22;;;;;;;3.93;0.80;;;;;;;18.95;71.37;98995.03;6215712;23;20190;-89
2022/04/27 05:06:47;;;;;;;2.70;1.43;;;;;;;19.24;70.57;98999.56;6215614;23;20201;-89
2022/04/27 05:09:13;;;;;;;2.57;1.63;;;;;;;19.38;70.04;99002.69;6215649;23;20629;-90
2022/04/27 05:11:38;;;;;;;1.53;0.90;;;;;;;19.45;68.52;99005.63;6215690;23;20573;-88
2022/04/27 05:14:04;;;;;;;1.57;0.83;;;;;;;19.35;67.51;99008.25;6189479;23;20491;-89
2022/04/27 05:16:31;;;;;;;1.70;0.60;;;;;;;19.28;66.85;99009.78;6215632;23;20160;-89
2022/04/27 05:18:56;;;;;;;4.80;1.60;;;;;;;19.31;66.60;99011.34;6189424;23;20627;-89
2022/04/27 05:21:22;;;;;;;1.03;0.63;;;;;;;19.36;67.20;99009.09;6189427;23;20156;-90
2022/04/27 05:23:48;;;;;;;1.13;0.70;;;;;;;19.38;67.47;99012.47;6189381;23;20486;-89
2022/04/27 05:26:13;;;;;;;2.37;0.90;;;;;;;19.17;66.32;99020.53;6215696;23;20640;-89
2022/04/27 05:31:54;;;;;;;0.97;0.43;;;;;;;19.28;67.64;99017.75;6216012;23;20145;-92
2022/04/27 05:34:38;;;;;;;4.17;0.67;;;;;;;19.26;67.28;99021.53;6216465;23;20145;-92
2022/04/27 05:37:04;;;;;;;1.87;1.20;;;;;;;19.22;67.17;99017.47;6190807;23;20146;-90
2022/04/27 05:39:29;;;;;;;1.20;0.60;;;;;;;19.48;68.00;99022.13;6189396;23;20619;-91
2022/04/27 05:41:55;;;;;;;4.47;1.93;;;;;;;19.63;67.14;99023.41;6215871;23;20188;-91
2022/04/27 05:44:23;;;;;;;3.07;1.90;;;;;;;19.72;66.24;99021.72;6215978;23;20212;-91
2022/04/27 05:46:49;;;;;;;2.27;1.40;;;;;;;19.73;66.60;99026.06;6215476;23;20181;-91
2022/04/27 05:49:35;;;;;;;2.83;1.40;;;;;;;19.82;67.52;99025.22;6189479;23;20156;-92
2022/04/27 05:52:13;;;;;;;;;;;;;;;;;;;;;
2022/04/27 05:54:42;;;;;;;6.87;3.93;;;;;;;19.76;66.59;99028.44;6216255;23;20712;-93
2022/04/27 05:57:27;;;;;;;2.90;1.30;;;;;;;19.74;66.36;99035.72;6215566;23;20141;-91
2022/04/27 06:00:52;;;;;;;4.43;1.17;;;;;;;19.70;67.33;99034.31;6216232;23;20134;-92
2022/04/27 06:03:23;;;;;;;1.43;0.80;;;;;;;19.84;67.01;99030.38;6189504;23;20229;-91
2022/04/27 06:05:52;;;;;;;1.37;0.80;;;;;;;19.60;66.35;99033.50;6189258;23;20182;-90
2022/04/27 06:11:03;;;;;;;3.27;0.97;;;;;;;19.90;68.04;99036.00;6215544;23;20631;-89
2022/04/27 06:13:44;;;;;;;;;;;;;;;;;;;;;
2022/04/27 06:16:10;;;;;;;2.00;1.17;;;;;;;20.22;65.54;99041.81;6217952;23;20606;-88
2022/04/27 06:18:35;;;;;;;2.00;0.90;;;;;;;20.39;64.52;99039.44;6217324;23;20174;-89
2022/04/27 06:21:01;;;;;;;3.37;1.60;;;;;;;20.88;64.56;99039.09;6191387;23;20545;-89
2022/04/27 06:23:27;;;;;;;3.50;2.10;;;;;;;21.52;63.81;99043.50;6191988;23;20559;-89
2022/04/27 06:25:53;;;;;;;3.33;1.40;;;;;;;21.81;60.04;99044.09;6217520;23;20185;-89
2022/04/27 06:28:21;;;;;;;4.67;2.53;;;;;;;22.40;58.49;99044.28;6190869;23;20229;-89
2022/04/27 06:30:47;;;;;;;1.90;1.00;;;;;;;22.88;55.31;99046.38;6190933;23;20154;-89
2022/04/27 06:33:12;;;;;;;2.00;1.00;;;;;;;23.42;56.32;99042.44;6190968;23;20265;-89
2022/04/27 06:35:48;;;;;;;6.73;3.97;;;;;;;23.71;52.27;99050.84;6191310;23;20156;-90
2022/04/27 06:38:13;;;;;;;4.50;1.07;;;;;;;23.82;52.79;99058.53;6217126;23;20130;-89
2022/04/27 06:40:46;;;;;;;1.40;0.50;;;;;;;24.02;52.76;99058.22;6217058;23;20574;-90
2022/04/27 06:43:28;;;;;;;1.40;0.70;;;;;;;24.24;51.86;99065.63;6191467;23;20576;-90
2022/04/27 06:46:20;;;;;;;2.13;0.97;;;;;;;24.48;49.31;99059.34;6217638;23;20166;-89
2022/04/27 06:49:34;;;;;;;0.80;0.47;;;;;;;24.60;49.76;99069.56;6190709;23;20223;-89
2022/04/27 06:55:53;;;;;;;3.43;1.57;;;;;;;25.39;50.27;99057.91;6010463;23;20597;-90
2022/04/27 07:02:26;;;;;;;;;;;;;;;;;;;;;
2022/04/27 07:54:49;;;;;;;1.57;0.87;;;;;;;25.20;45.35;99066.38;5982251;23;20668;-94
2022/04/27 07:58:07;;;;;;;;;;;;;;;;;;;;;
2022/04/27 08:14:28;;;;;;;7.10;1.17;;;;;;;25.77;46.25;99050.78;5898880;24;20175;-93
2022/04/27 08:17:08;;;;;;;0.80;0.50;;;;;;;26.03;45.74;99053.94;5940136;24;20599;-93
2022/04/27 08:31:01;;;;;;;3.97;0.50;;;;;;;26.10;42.53;99053.03;6017248;23;20225;-93
2022/04/27 08:33:26;;;;;;;1.07;0.50;;;;;;;26.28;42.54;99046.53;6016974;23;20177;-92
2022/04/27 08:37:07;;;;;;;;;;;;;;;;;;;;;
2022/04/27 08:39:33;;;;;;;1.73;0.80;;;;;;;26.33;42.69;99038.75;5930888;24;20243;-93
2022/04/27 08:42:45;;;;;;;1.10;0.57;;;;;;;26.49;41.64;99034.06;5958782;24;20174;-94
2022/04/27 08:45:21;;;;;;;2.03;0.63;;;;;;;26.52;41.70;99030.19;5981623;24;20163;-93
2022/04/27 08:55:51;;;;;;;4.68;0.80;;;;;;;27.28;41.71;99024.41;5982558;24;20247;-94
2022/04/27 08:58:51;;;;;;;;;;;;;;;;;;;;;
2022/04/27 09:01:22;;;;;;;2.90;0.60;;;;;;;27.40;38.56;99014.81;5980845;24;20234;-95
2022/04/27 09:04:15;;;;;;;3.50;0.75;;;;;;;27.64;37.41;99016.31;5982551;24;20171;-93
2022/04/27 09:07:25;;;;;;;0.98;0.70;;;;;;;27.65;39.18;99017.97;6030567;23;20194;-93
2022/04/27 09:10:01;;;;;;;2.42;0.95;;;;;;;27.56;37.21;99017.28;6054538;23;20249;-94
2022/04/27 09:12:27;;;;;;;1.55;0.52;;;;;;;27.44;35.22;99014.25;6160309;23;20150;-92
2022/04/27 09:15:03;;;;;;;3.42;0.70;;;;;;;26.91;37.22;99019.16;6159973;23;20220;-91
2022/04/27 09:23:22;;;;;;;0.88;0.50;;;;;;;27.25;38.51;99012.13;6185970;23;20165;-91
2022/04/27 09:26:13;;;;;;;0.70;0.30;;;;;;;27.38;37.50;99004.19;6159589;23;20517;-93
2022/04/27 09:28:59;;;;;;;1.35;0.90;;;;;;;27.59;35.55;99010.66;6185876;23;20218;-94
2022/04/27 09:36:28;;;;;;;;;;;;;;;;;;;;;
2022/04/27 09:43:20;;;;;;;1.83;0.60;;;;;;;28.49;35.58;99006.25;6041450;23;20236;-94
2022/04/27 09:46:48;;;;;;;1.60;0.60;;;;;;;28.62;35.31;99004.50;6014100;23;20523;-93
2022/04/27 09:49:22;;;;;;;15.70;1.27;;;;;;;28.88;36.28;98994.91;5998274;23;20185;-94
2022/04/27 09:51:50;;;;;;;4.45;0.80;;;;;;;28.90;35.47;98996.38;6030056;23;20224;-93
2022/04/27 09:54:25;;;;;;;0.82;0.60;;;;;;;29.05;35.94;98997.06;6069488;23;20184;-92
2022/04/27 09:57:35;;;;;;;0.32;0.20;;;;;;;28.95;31.94;98998.47;6066855;23;20156;-93
2022/04/27 10:00:02;;;;;;;1.38;0.45;;;;;;;28.64;31.78;99001.63;6113577;23;20254;-91
2022/04/27 10:06:04;;;;;;;0.73;0.43;;;;;;;29.34;33.37;98989.69;6155384;23;20189;-94
2022/04/27 10:08:51;;;;;;;1.98;1.20;;;;;;;29.41;33.33;98980.56;6156573;23;20159;-93
2022/04/27 10:11:23;;;;;;;2.05;0.40;;;;;;;29.59;33.37;98983.50;6188296;23;20135;-93
2022/04/27 10:14:26;;;;;;;5.80;0.80;;;;;;;29.93;32.92;98979.03;6186473;23;20507;-93
2022/04/27 10:17:01;;;;;;;2.70;0.50;;;;;;;29.77;32.97;98974.78;6185417;23;20244;-93
2022/04/27 10:19:47;;;;;;;4.70;0.47;;;;;;;29.89;31.98;98972.34;6186389;23;20551;-93
2022/04/27 10:22:32;;;;;;;2.58;0.65;;;;;;;30.20;33.24;98973.38;6186925;23;20147;-93
2022/04/27 10:25:18;;;;;;;;;;;;;;;;;;;;;
2022/04/27 10:27:44;;;;;;;2.25;1.13;;;;;;;30.29;33.19;98958.56;6187375;23;20233;-93
2022/04/27 10:30:20;;;;;;;1.38;0.30;;;;;;;30.14;32.19;98963.38;6187234;23;20209;-92
2022/04/27 10:33:04;;;;;;;2.72;0.45;;;;;;;29.95;33.72;98966.97;6218048;23;20156;-92
2022/04/27 10:36:23;;;;;;;4.78;0.77;;;;;;;30.05;33.30;98963.81;6217620;23;20145;-94
2022/04/27 10:39:14;;;;;;;0.82;0.40;;;;;;;30.48;32.37;98947.97;6044191;23;20157;-93
2022/04/27 10:41:40;;;;;;;3.88;0.80;;;;;;;30.12;33.16;98954.66;6068192;23;20153;-91
2022/04/27 10:44:51;;;;;;;1.45;0.60;;;;;;;29.77;34.97;98951.31;6202774;23;20492;-93
2022/04/27 10:48:15;;;;;;;;;;;;;;;;;;;;;
2022/04/27 10:51:11;;;;;;;6.50;1.10;;;;;;;30.34;32.78;98947.16;6181355;23;20228;-94
2022/04/27 10:54:13;;;;;;;7.22;0.75;;;;;;;30.12;34.69;98953.81;6190911;23;20154;-93
2022/04/27 10:56:38;;;;;;;3.42;0.70;;;;;;;30.14;33.07;98946.31;6190855;23;20460;-91
2022/04/27 11:03:30;;;;;;;5.40;0.77;;;;;;;30.51;33.02;98942.97;6191090;23;20204;-94
2022/04/27 11:09:46;;;;;;;3.85;0.90;;;;;;;30.78;30.70;98943.72;5927401;24;20267;-93
2022/04/27 11:12:33;;;;;;;3.78;0.95;;;;;;;30.66;31.23;98935.41;5924697;24;20244;-95
2022/04/27 11:22:38;;;;;;;9.18;1.08;;;;;;;30.15;30.26;98931.78;5989372;23;20293;-93
2022/04/27 11:25:07;;;;;;;2.97;0.52;;;;;;;30.63;30.40;98935.88;6185220;23;20217;-94
2022/04/27 11:28:11;;;;;;;5.80;0.63;;;;;;;30.93;28.91;98918.06;6185190;23;20198;-93
2022/04/27 11:30:40;;;;;;;6.32;1.02;;;;;;;30.72;30.18;98923.75;6143254;23;20173;-92
2022/04/27 11:33:10;;;;;;;5.68;0.90;;;;;;;30.64;30.83;98925.84;6216799;23;20150;-93
2022/04/27 11:35:55;;;;;;;3.67;0.70;;;;;;;31.01;30.22;98925.09;6217295;23;20138;-93
2022/04/27 11:38:32;;;;;;;1.77;0.70;;;;;;;30.64;29.24;98921.28;6190500;23;20254;-92
2022/04/27 11:41:02;;;;;;;2.60;0.50;;;;;;;30.04;30.94;98921.59;6190743;23;20142;-91
2022/04/27 11:43:29;;;;;;;5.95;1.00;;;;;;;30.30;30.88;98918.84;6216852;23;20150;-93
2022/04/27 11:45:58;;;;;;;5.50;1.00;;;;;;;30.88;29.41;98915.13;6216785;23;20236;-93
2022/04/27 11:48:30;;;;;;;3.42;0.82;;;;;;;31.08;28.77;98898.81;6216631;23;20145;-93
2022/04/27 11:50:57;;;;;;;5.25;1.38;;;;;;;31.21;29.35;98900.63;6190293;23;20169;-92
2022/04/27 11:53:30;;;;;;;3.08;1.17;;;;;;;31.03;29.29;98898.63;6216592;23;20158;-91
2022/04/27 11:55:58;;;;;;;3.30;1.23;;;;;;;30.47;30.39;98903.03;6217278;23;20210;-92
2022/04/27 11:58:28;;;;;;;4.18;0.70;;;;;;;29.96;30.51;98900.19;6216676;23;20149;-92
2022/04/27 12:00:57;;;;;;;8.23;1.45;;;;;;;30.06;29.05;98901.41;6190113;23;20158;-91
2022/04/27 12:03:27;;;;;;;7.38;1.20;;;;;;;30.18;29.82;98894.34;6216286;23;20145;-93
2022/04/27 12:05:54;;;;;;;3.28;0.70;;;;;;;30.51;28.25;98896.97;6216117;23;20650;-92
2022/04/27 12:08:25;;;;;;;16.48;2.33;;;;;;;30.92;28.83;98883.91;6216389;23;20146;-93
2022/04/27 12:10:51;;;;;;;2.25;0.50;;;;;;;31.33;29.70;98882.63;6217055;23;20228;-93
2022/04/27 12:13:18;;;;;;;12.98;1.42;;;;;;;31.57;29.49;98879.97;6216729;23;20150;-93
2022/04/27 12:15:51;;;;;;;4.13;1.58;;;;;;;31.60;29.63;98873.28;6190052;23;20150;-92
2022/04/27 12:18:18;;;;;;;8.02;1.08;;;;;;;31.59;28.42;98867.00;6216434;23;20142;-92
2022/04/27 12:20:45;;;;;;;2.85;1.23;;;;;;;30.93;29.57;98861.22;6216906;23;20229;-92
2022/04/27 12:23:14;;;;;;;10.10;0.88;;;;;;;30.88;29.64;98861.00;6216073;23;20154;-92
2022/04/27 12:25:41;;;;;;;10.00;1.15;;;;;;;30.83;29.67;98855.41;6216546;23;20160;-92
2022/04/27 12:28:13;;;;;;;2.35;0.68;;;;;;;31.03;30.41;98858.00;6191352;23;20170;-93
2022/04/27 12:30:56;;;;;;;5.28;1.05;;;;;;;31.30;29.72;98856.78;6216424;23;20166;-93
2022/04/27 12:33:59;;;;;;;5.50;1.38;;;;;;;31.10;30.07;98850.69;6190925;23;20142;-91
2022/04/27 12:39:21;;;;;;;1.58;0.80;;;;;;;30.63;30.41;98841.16;6216608;23;20187;-93
2022/04/27 12:41:49;;;;;;;6.78;1.23;;;;;;;30.60;30.52;98844.28;6215947;23;20656;-92
2022/04/27 12:44:19;;;;;;;0.77;0.52;;;;;;;30.60;30.52;98846.16;6215945;23;20179;-91
2022/04/27 12:47:01;;;;;;;5.35;0.95;;;;;;;31.03;30.33;98841.75;6216229;23;20564;-91
2022/04/27 12:49:29;;;;;;;6.43;0.85;;;;;;;31.32;29.17;98837.59;6215912;23;20170;-92
2022/04/27 12:52:38;;;;;;;8.20;0.90;;;;;;;31.23;30.79;98833.53;6215970;23;20149;-94
2022/04/27 12:55:07;;;;;;;5.75;1.15;;;;;;;31.07;31.02;98834.88;6190764;23;20467;-92
2022/04/27 12:57:52;;;;;;;8.40;1.10;;;;;;;30.35;30.49;98837.91;6216528;23;20149;-92
2022/04/27 13:00:20;;;;;;;2.03;0.65;;;;;;;30.49;30.21;98831.44;6216599;23;20148;-92
2022/04/27 13:02:47;;;;;;;4.00;0.85;;;;;;;30.90;30.49;98833.69;6215804;23;20470;-93
2022/04/27 13:15:38;;;;;;;8.75;1.73;;;;;;;31.05;27.92;98806.38;5981720;24;20595;-92
2022/04/27 13:18:03;;;;;;;17.75;1.75;;;;;;;30.73;28.91;98800.94;6013591;23;20161;-92
2022/04/27 13:20:29;;;;;;;5.13;1.10;;;;;;;30.43;30.86;98802.53;6154747;23;20153;-92
2022/04/27 13:22:54;;;;;;;4.50;0.73;;;;;;;30.01;31.16;98800.38;6215506;23;20221;-91
2022/04/27 13:25:20;;;;;;;2.70;0.75;;;;;;;30.05;31.32;98796.22;6215980;23;20165;-91
2022/04/27 13:27:45;;;;;;;4.28;1.00;;;;;;;30.34;32.05;98801.09;6215851;23;20553;-89
2022/04/27 13:30:11;;;;;;;2.72;0.88;;;;;;;30.29;31.63;98787.41;6215786;23;20161;-92
2022/04/27 13:32:38;;;;;;;2.40;0.90;;;;;;;30.56;31.31;98796.22;6216257;23;20130;-93
2022/04/27 13:35:05;;;;;;;2.47;0.70;;;;;;;30.41;30.20;98791.09;6189357;23;20154;-92
2022/04/27 13:37:30;;;;;;;2.90;1.10;;;;;;;30.01;30.14;98792.25;6189349;23;20169;-92
2022/04/27 13:39:57;;;;;;;5.97;1.55;;;;;;;30.33;30.92;98794.03;6216223;23;20150;-92
2022/04/27 13:42:23;;;;;;;2.58;1.17;;;;;;;30.21;29.81;98795.75;6189400;23;20578;-92
2022/04/27 13:44:49;;;;;;;6.65;2.00;;;;;;;30.42;30.58;98798.19;6215867;23;20221;-92
2022/04/27 13:47:17;;;;;;;4.30;1.17;;;;;;;30.34;29.81;98801.09;6189016;23;20204;-91
2022/04/27 13:49:43;;;;;;;2.85;0.73;;;;;;;30.49;28.69;98793.56;6215482;23;20164;-92
2022/04/27 13:52:08;;;;;;;12.70;1.38;;;;;;;30.38;28.47;98791.53;6189365;23;20578;-92
2022/04/27 13:54:34;;;;;;;7.93;1.77;;;;;;;30.28;28.88;98799.25;6215439;23;20248;-92
2022/04/27 13:56:59;;;;;;;5.43;1.40;;;;;;;30.21;29.55;98806.56;6189347;23;20215;-92
2022/04/27 13:59:25;;;;;;;3.53;1.38;;;;;;;29.82;30.95;98808.31;6215436;23;20216;-91
2022/04/27 14:01:51;;;;;;;4.35;1.55;;;;;;;29.38;30.61;98810.00;6215769;23;20164;-91
2022/04/27 14:04:19;;;;;;;3.50;1.13;;;;;;;29.41;31.41;98809.59;6189244;23;20150;-91
2022/04/27 14:06:45;;;;;;;4.32;0.90;;;;;;;29.69;31.50;98813.72;6215401;23;20173;-91
2022/04/27 14:09:11;;;;;;;7.90;1.02;;;;;;;30.01;31.56;98812.03;6215411;23;20258;-92
2022/04/27 14:14:21;;;;;;;6.20;1.92;;;;;;;29.92;31.14;98809.78;6216130;23;20152;-92
2022/04/27 14:19:34;;;;;;;7.30;1.52;;;;;;;30.21;30.84;98809.25;6215828;23;20149;-92
2022/04/27 14:22:00;;;;;;;12.38;2.22;;;;;;;30.26;30.33;98812.16;6215504;23;20154;-92
2022/04/27 14:24:26;;;;;;;3.25;0.90;;;;;;;30.15;30.57;98812.81;6215336;23;20613;-92
2022/04/27 14:26:52;;;;;;;6.82;1.60;;;;;;;29.66;29.25;98824.97;6215336;23;20177;-91
2022/04/27 14:29:17;;;;;;;7.10;1.13;;;;;;;29.60;29.77;98825.78;6215317;23;20157;-92
2022/04/27 14:31:43;;;;;;;3.65;0.90;;;;;;;29.59;29.58;98824.13;6215332;23;20162;-91
2022/04/27 14:34:08;;;;;;;8.57;1.42;;;;;;;29.54;30.17;98820.38;6216401;23;20161;-92
2022/04/27 14:36:34;;;;;;;7.28;1.50;;;;;;;29.70;30.23;98815.38;6214517;23;20578;-91
2022/04/27 14:39:00;;;;;;;5.70;1.20;;;;;;;29.78;30.10;98811.63;6188385;23;20639;-92
2022/04/27 14:41:26;;;;;;;7.13;2.00;;;;;;;29.75;29.65;98812.88;6190123;23;20512;-91
2022/04/27 14:43:52;;;;;;;5.85;1.17;;;;;;;29.69;29.84;98808.31;6217048;23;20150;-91